Time;durP1;ratioP1;P1;durP2;ratioP2;P2;SDS_P1;SDS_P2;PMS_P1;PMS_P2;Temp;Humidity;BMP_temperature;BMP_pressure;BME280_temperature;BME280_humidity;BME280_pressure;Samples;Min_cycle;Max_cycle;Signal;HPM_P1;HPM_P2
2022/03/25 00:01:22;;;;;;;34.92;25.08;;;5.00;99.90;;;;;;4970743;28;20034;-48
2022/03/25 00:03:49;;;;;;;41.78;26.63;;;5.00;99.90;;;;;;4970664;28;20070;-48
2022/03/25 00:06:15;;;;;;;42.20;26.88;;;5.00;99.90;;;;;;4970974;28;20019;-48
2022/03/25 00:08:41;;;;;;;42.28;24.70;;;5.00;99.90;;;;;;4970208;28;20102;-48
2022/03/25 00:11:06;;;;;;;38.53;25.13;;;5.00;99.90;;;;;;4970964;28;20126;-50
2022/03/25 00:13:32;;;;;;;38.38;24.48;;;4.90;99.90;;;;;;4970415;28;20027;-47
2022/03/25 00:15:58;;;;;;;39.17;25.70;;;4.90;99.90;;;;;;4971051;28;20027;-47
2022/03/25 00:18:23;;;;;;;38.97;26.40;;;4.90;99.90;;;;;;4971312;28;20085;-49
2022/03/25 00:20:49;;;;;;;39.92;24.73;;;4.80;99.90;;;;;;4970341;28;20054;-48
2022/03/25 00:23:16;;;;;;;38.10;24.83;;;4.80;99.90;;;;;;4970804;28;20045;-48
2022/03/25 00:25:41;;;;;;;35.63;25.45;;;4.80;99.90;;;;;;4970516;28;20026;-47
2022/03/25 00:28:07;;;;;;;37.88;26.20;;;4.70;99.90;;;;;;4970240;28;20031;-47
2022/03/25 00:30:33;;;;;;;39.20;27.35;;;4.70;99.90;;;;;;4970988;28;20433;-50
2022/03/25 00:32:59;;;;;;;38.33;25.70;;;4.70;99.90;;;;;;4970413;28;20030;-49
2022/03/25 00:35:25;;;;;;;40.28;25.70;;;4.60;99.90;;;;;;4970111;28;20039;-51
2022/03/25 00:37:50;;;;;;;40.92;26.10;;;4.60;99.90;;;;;;4968744;28;20038;-48
2022/03/25 00:40:16;;;;;;;41.72;26.55;;;4.60;99.90;;;;;;4970641;28;20027;-48
2022/03/25 00:42:42;;;;;;;37.72;24.88;;;4.60;99.90;;;;;;4969619;28;20034;-47
2022/03/25 00:45:08;;;;;;;44.67;26.92;;;4.60;99.90;;;;;;4970295;28;20088;-47
2022/03/25 00:47:36;;;;;;;45.20;28.35;;;4.60;99.90;;;;;;4970078;28;20069;-51
2022/03/25 00:50:02;;;;;;;41.53;27.92;;;4.50;99.90;;;;;;4970152;28;20061;-50
2022/03/25 00:52:28;;;;;;;40.97;28.23;;;4.50;99.90;;;;;;4969968;28;20058;-47
2022/03/25 00:54:54;;;;;;;46.58;27.10;;;4.50;99.90;;;;;;4970381;28;20726;-50
2022/03/25 00:57:20;;;;;;;43.05;27.75;;;4.50;99.90;;;;;;4969891;28;20046;-46
2022/03/25 00:59:46;;;;;;;41.75;28.23;;;4.50;99.90;;;;;;4970411;28;20477;-48
2022/03/25 01:02:12;;;;;;;46.90;30.20;;;4.40;99.90;;;;;;4970192;28;20038;-49
2022/03/25 01:04:38;;;;;;;43.85;27.88;;;4.30;99.90;;;;;;4970178;28;20035;-51
2022/03/25 01:07:04;;;;;;;40.40;27.80;;;4.40;99.90;;;;;;4969521;28;20042;-48
2022/03/25 01:09:30;;;;;;;43.22;28.92;;;4.30;99.90;;;;;;4971033;28;20046;-47
2022/03/25 01:11:56;;;;;;;41.47;28.40;;;4.30;99.90;;;;;;4973890;28;20031;-48
2022/03/25 01:14:22;;;;;;;44.58;29.98;;;4.30;99.90;;;;;;4974047;28;20210;-49
2022/03/25 01:16:48;;;;;;;44.22;29.67;;;4.30;99.90;;;;;;4974219;28;20118;-47
2022/03/25 01:19:13;;;;;;;50.05;30.60;;;4.30;99.90;;;;;;4973664;28;20102;-50
2022/03/25 01:21:39;;;;;;;46.50;30.30;;;4.20;99.90;;;;;;4973850;28;20059;-49
2022/03/25 01:24:06;;;;;;;44.70;29.88;;;4.20;99.90;;;;;;4973845;28;20085;-51
2022/03/25 01:26:32;;;;;;;48.00;29.67;;;4.20;99.90;;;;;;4973706;28;20548;-52
2022/03/25 01:28:57;;;;;;;41.95;27.35;;;4.20;99.90;;;;;;4973828;28;20047;-48
2022/03/25 01:31:29;;;;;;;44.85;28.48;;;4.20;99.90;;;;;;4973912;28;20054;-46
2022/03/25 01:33:56;;;;;;;45.13;30.45;;;4.20;99.90;;;;;;4973187;28;20026;-49
2022/03/25 01:36:22;;;;;;;45.15;29.38;;;4.10;99.90;;;;;;4973391;28;20034;-47
2022/03/25 01:38:48;;;;;;;41.80;27.75;;;4.10;99.90;;;;;;4973607;28;20031;-46
2022/03/25 01:41:16;;;;;;;50.92;30.98;;;4.10;99.90;;;;;;4972841;28;20035;-50
2022/03/25 01:44:00;;;;;;;42.75;28.52;;;4.10;99.90;;;;;;4973333;28;20033;-47
2022/03/25 01:46:26;;;;;;;44.58;29.23;;;4.00;99.90;;;;;;4972930;28;20054;-48
2022/03/25 01:48:53;;;;;;;46.30;28.52;;;4.00;99.90;;;;;;4968520;28;20037;-47
2022/03/25 01:51:22;;;;;;;45.78;29.90;;;4.00;99.90;;;;;;4970967;28;20477;-49
2022/03/25 01:53:48;;;;;;;44.85;28.80;;;4.00;99.90;;;;;;4969961;28;20137;-50
2022/03/25 01:56:21;;;;;;;44.83;28.25;;;3.90;99.90;;;;;;4973639;28;20501;-48
2022/03/25 01:59:02;;;;;;;43.28;29.27;;;3.90;99.90;;;;;;4973388;28;20034;-50
2022/03/25 02:01:27;;;;;;;40.00;28.85;;;3.90;99.90;;;;;;4973009;28;20031;-49
2022/03/25 02:03:53;;;;;;;45.67;29.10;;;3.80;99.90;;;;;;4972636;28;20397;-48
2022/03/25 02:06:19;;;;;;;40.35;27.00;;;3.80;99.90;;;;;;4973280;28;20039;-51
2022/03/25 02:08:45;;;;;;;46.30;28.67;;;3.80;99.90;;;;;;4972774;28;20039;-50
2022/03/25 02:11:11;;;;;;;47.78;30.50;;;3.70;99.90;;;;;;4973045;28;20085;-50
2022/03/25 02:13:37;;;;;;;48.45;29.77;;;3.70;99.90;;;;;;4972847;28;20481;-47
2022/03/25 02:16:02;;;;;;;44.67;29.88;;;3.70;99.90;;;;;;4972847;28;20043;-48
2022/03/25 02:18:28;;;;;;;40.97;26.75;;;3.60;99.90;;;;;;4972433;28;20031;-51
2022/03/25 02:20:54;;;;;;;48.13;30.52;;;3.60;99.90;;;;;;4972341;28;20041;-51
2022/03/25 02:23:22;;;;;;;42.13;28.60;;;3.60;99.90;;;;;;4972315;28;20210;-47
2022/03/25 02:25:52;;;;;;;45.95;29.23;;;3.60;99.90;;;;;;4972643;28;20030;-50
2022/03/25 02:28:17;;;;;;;47.30;30.10;;;3.50;99.90;;;;;;4972631;28;20037;-51
2022/03/25 02:30:43;;;;;;;41.10;28.13;;;3.50;99.90;;;;;;4972744;28;20105;-47
2022/03/25 02:33:08;;;;;;;43.13;28.00;;;3.50;99.90;;;;;;4972483;28;20503;-47
2022/03/25 02:35:54;;;;;;;42.95;27.80;;;3.50;99.90;;;;;;4972998;28;20035;-49
2022/03/25 02:38:22;;;;;;;42.20;27.97;;;3.40;99.90;;;;;;4971870;28;20058;-48
2022/03/25 02:40:48;;;;;;;40.72;27.17;;;3.40;99.90;;;;;;4971883;28;20042;-48
2022/03/25 02:43:14;;;;;;;40.28;27.40;;;3.40;99.90;;;;;;4971696;28;20134;-48
2022/03/25 02:45:40;;;;;;;43.83;28.52;;;3.30;99.90;;;;;;4972722;28;20031;-46
2022/03/25 02:48:07;;;;;;;40.38;25.98;;;3.30;99.90;;;;;;4971976;28;20031;-48
2022/03/25 02:50:33;;;;;;;49.10;29.30;;;3.30;99.90;;;;;;4971909;28;20114;-47
2022/03/25 02:53:00;;;;;;;41.85;28.67;;;3.30;99.90;;;;;;4972102;28;20062;-49
2022/03/25 02:55:26;;;;;;;46.45;30.10;;;3.30;99.90;;;;;;4972633;28;20027;-48
2022/03/25 02:57:53;;;;;;;42.95;28.63;;;3.20;99.90;;;;;;4970994;28;20031;-46
2022/03/25 03:00:20;;;;;;;44.45;29.23;;;3.20;99.90;;;;;;4972322;28;20031;-47
2022/03/25 03:02:45;;;;;;;45.97;29.35;;;3.20;99.90;;;;;;4971570;28;20038;-49
2022/03/25 03:05:11;;;;;;;45.47;28.00;;;3.20;99.90;;;;;;4971913;28;20027;-46
2022/03/25 03:07:37;;;;;;;45.40;28.58;;;3.20;99.90;;;;;;4971618;28;20038;-50
2022/03/25 03:10:05;;;;;;;44.25;28.73;;;3.10;99.90;;;;;;4971899;28;20073;-50
2022/03/25 03:12:31;;;;;;;44.88;28.83;;;3.10;99.90;;;;;;4971951;28;20041;-49
2022/03/25 03:14:58;;;;;;;47.67;28.25;;;3.10;99.90;;;;;;4972025;28;20131;-52
2022/03/25 03:17:23;;;;;;;46.17;27.63;;;3.10;99.90;;;;;;4971857;28;20041;-47
2022/03/25 03:19:50;;;;;;;43.00;27.00;;;3.10;99.90;;;;;;4971698;28;20031;-50
2022/03/25 03:22:17;;;;;;;40.90;27.50;;;3.00;99.90;;;;;;4971261;28;20118;-48
2022/03/25 03:24:43;;;;;;;42.92;27.30;;;3.00;99.90;;;;;;4969620;28;20093;-46
2022/03/25 03:27:08;;;;;;;45.83;29.10;;;3.00;99.90;;;;;;4970118;28;20039;-47
2022/03/25 03:29:34;;;;;;;46.80;29.92;;;3.00;99.90;;;;;;4971298;28;20031;-51
2022/03/25 03:31:59;;;;;;;41.60;26.95;;;3.00;99.90;;;;;;4970235;28;20043;-46
2022/03/25 03:34:25;;;;;;;45.05;27.45;;;3.00;99.90;;;;;;4971986;28;20042;-47
2022/03/25 03:36:51;;;;;;;49.50;28.40;;;2.90;99.90;;;;;;4971551;28;20062;-46
2022/03/25 03:39:16;;;;;;;43.15;27.15;;;2.90;99.90;;;;;;4971357;28;20034;-46
2022/03/25 03:41:42;;;;;;;45.60;27.35;;;2.90;99.90;;;;;;4971254;28;20409;-51
2022/03/25 03:44:07;;;;;;;41.92;26.20;;;2.90;99.90;;;;;;4970609;28;20052;-48
2022/03/25 03:46:33;;;;;;;42.03;26.73;;;2.90;99.90;;;;;;4971255;28;20054;-47
2022/03/25 03:48:59;;;;;;;43.88;29.08;;;2.80;99.90;;;;;;4971341;28;20514;-48
2022/03/25 03:51:24;;;;;;;46.67;29.90;;;2.80;99.90;;;;;;4971404;28;20097;-48
2022/03/25 03:53:50;;;;;;;48.22;29.40;;;2.80;99.90;;;;;;4970829;28;20541;-47
2022/03/25 03:56:15;;;;;;;52.55;29.60;;;2.80;99.90;;;;;;4971028;28;20031;-48
2022/03/25 03:58:41;;;;;;;49.78;30.17;;;2.70;99.90;;;;;;4970928;28;20031;-49
2022/03/25 04:01:07;;;;;;;47.17;29.55;;;2.70;99.90;;;;;;4971049;28;20484;-48
2022/03/25 04:03:32;;;;;;;49.58;29.58;;;2.70;99.90;;;;;;4970498;28;20074;-50
2022/03/25 04:06:00;;;;;;;49.53;28.77;;;2.70;99.90;;;;;;4969567;28;20030;-50
2022/03/25 04:08:26;;;;;;;43.85;28.27;;;2.60;99.90;;;;;;4970638;28;20046;-48
2022/03/25 04:10:52;;;;;;;43.45;28.30;;;2.60;99.90;;;;;;4970952;28;20035;-51
2022/03/25 04:13:17;;;;;;;44.15;28.13;;;2.60;99.90;;;;;;4970777;28;20026;-48
2022/03/25 04:15:43;;;;;;;42.53;28.85;;;2.60;99.90;;;;;;4970990;28;20604;-49
2022/03/25 04:18:09;;;;;;;45.85;27.98;;;2.60;99.90;;;;;;4970667;28;20053;-45
2022/03/25 04:20:34;;;;;;;39.67;26.65;;;2.50;99.90;;;;;;4970864;28;20039;-47
2022/03/25 04:23:00;;;;;;;40.28;27.27;;;2.50;99.90;;;;;;4970364;28;20118;-49
2022/03/25 04:25:26;;;;;;;43.92;27.75;;;2.50;99.90;;;;;;4970611;28;20501;-46
2022/03/25 04:27:53;;;;;;;49.25;28.15;;;2.50;99.90;;;;;;4970721;28;20019;-47
2022/03/25 04:30:21;;;;;;;42.95;25.83;;;2.50;99.90;;;;;;4971050;28;20039;-46
2022/03/25 04:32:47;;;;;;;45.35;27.83;;;2.40;99.90;;;;;;4970181;28;21163;-49
2022/03/25 04:35:13;;;;;;;47.47;28.48;;;2.50;99.90;;;;;;4970245;28;20113;-47
2022/03/25 04:37:39;;;;;;;48.13;29.00;;;2.40;99.90;;;;;;4969384;28;20110;-45
2022/03/25 04:40:05;;;;;;;40.95;27.45;;;2.40;99.90;;;;;;4970192;28;20035;-46
2022/03/25 04:42:31;;;;;;;42.70;27.45;;;2.40;99.90;;;;;;4969905;28;20106;-47
2022/03/25 04:44:56;;;;;;;42.75;28.38;;;2.40;99.90;;;;;;4969110;28;20110;-48
2022/03/25 04:47:22;;;;;;;46.17;28.35;;;2.40;99.90;;;;;;4970091;28;20046;-46
2022/03/25 04:49:47;;;;;;;45.65;30.25;;;2.30;99.90;;;;;;4969560;28;20524;-47
2022/03/25 04:52:13;;;;;;;44.78;29.33;;;2.30;99.90;;;;;;4970536;28;20485;-48
2022/03/25 04:54:39;;;;;;;44.33;28.23;;;2.30;99.90;;;;;;4969997;28;20031;-50
2022/03/25 04:57:04;;;;;;;44.65;28.35;;;2.30;99.90;;;;;;4969334;28;20062;-50
2022/03/25 04:59:30;;;;;;;40.58;26.90;;;2.30;99.90;;;;;;4969475;28;20045;-46
2022/03/25 05:01:55;;;;;;;45.70;28.67;;;2.30;99.90;;;;;;4967169;28;20528;-45
2022/03/25 05:04:21;;;;;;;41.92;26.17;;;2.20;99.90;;;;;;4967935;28;20556;-48
2022/03/25 05:06:47;;;;;;;50.47;29.08;;;2.30;99.90;;;;;;4969142;28;20058;-48
2022/03/25 05:09:13;;;;;;;45.50;29.15;;;2.20;99.90;;;;;;4969884;28;20123;-47
2022/03/25 05:11:39;;;;;;;47.67;29.13;;;2.20;99.90;;;;;;4970216;28;20117;-49
2022/03/25 05:14:05;;;;;;;42.92;28.27;;;2.20;99.90;;;;;;4969465;28;20119;-47
2022/03/25 05:16:30;;;;;;;45.90;28.15;;;2.20;99.90;;;;;;4969828;28;20173;-46
2022/03/25 05:18:56;;;;;;;44.28;29.70;;;2.10;99.90;;;;;;4968547;28;20760;-47
2022/03/25 05:21:21;;;;;;;57.22;30.30;;;2.10;99.90;;;;;;4969625;28;20452;-47
2022/03/25 05:23:47;;;;;;;45.35;29.02;;;2.10;99.90;;;;;;4968800;28;20031;-47
2022/03/25 05:26:13;;;;;;;49.15;29.17;;;2.10;99.90;;;;;;4970308;28;20105;-48
2022/03/25 05:28:38;;;;;;;45.08;30.38;;;2.10;99.90;;;;;;4970151;28;20035;-48
2022/03/25 05:31:04;;;;;;;50.75;30.55;;;2.10;99.90;;;;;;4969999;28;20033;-46
2022/03/25 05:33:29;;;;;;;46.40;29.88;;;2.10;99.90;;;;;;4969567;28;20047;-48
2022/03/25 05:35:55;;;;;;;48.42;28.95;;;2.10;99.90;;;;;;4969932;28;20561;-47
2022/03/25 05:38:20;;;;;;;49.13;29.33;;;2.10;99.90;;;;;;4969334;28;20034;-44
2022/03/25 05:40:46;;;;;;;46.50;28.85;;;2.10;99.90;;;;;;4969526;28;20064;-46
2022/03/25 05:43:14;;;;;;;44.13;29.13;;;2.10;99.90;;;;;;4969526;28;20046;-47
2022/03/25 05:45:39;;;;;;;51.72;31.67;;;2.10;99.90;;;;;;4969874;28;20031;-46
2022/03/25 05:48:05;;;;;;;53.38;32.35;;;2.10;99.90;;;;;;4968547;28;20030;-46
2022/03/25 05:50:31;;;;;;;53.97;31.38;;;2.10;99.90;;;;;;4969414;28;20393;-50
2022/03/25 05:52:57;;;;;;;50.47;31.80;;;2.20;99.90;;;;;;4968865;28;20039;-47
2022/03/25 05:55:22;;;;;;;48.85;32.05;;;2.10;99.90;;;;;;4969755;28;20485;-47
2022/03/25 05:57:49;;;;;;;51.88;32.00;;;2.20;99.90;;;;;;4973180;28;21605;-47
2022/03/25 06:00:15;;;;;;;54.05;32.08;;;2.20;99.90;;;;;;4973053;28;20114;-48
2022/03/25 06:02:42;;;;;;;52.78;33.38;;;2.20;99.90;;;;;;4972941;28;20489;-47
2022/03/25 06:05:09;;;;;;;49.55;31.02;;;2.30;99.90;;;;;;4973455;28;20035;-48
2022/03/25 06:07:36;;;;;;;52.58;32.22;;;2.30;99.90;;;;;;4971740;28;20027;-51
2022/03/25 06:10:02;;;;;;;55.50;33.55;;;2.30;99.90;;;;;;4973202;28;20474;-51
2022/03/25 06:12:28;;;;;;;53.13;34.10;;;2.40;99.90;;;;;;4972845;28;20039;-49
2022/03/25 06:14:53;;;;;;;55.47;35.53;;;2.40;99.90;;;;;;4972659;28;20038;-48
2022/03/25 06:17:19;;;;;;;57.97;34.72;;;2.40;99.90;;;;;;4973008;28;20030;-48
2022/03/25 06:19:44;;;;;;;60.85;35.65;;;2.50;99.90;;;;;;4973149;28;20035;-52
2022/03/25 06:22:10;;;;;;;57.10;36.13;;;2.50;99.90;;;;;;4972371;28;20453;-50
2022/03/25 06:24:36;;;;;;;74.75;39.33;;;2.50;99.90;;;;;;4972987;28;20125;-51
2022/03/25 06:27:02;;;;;;;60.60;36.85;;;2.60;99.90;;;;;;4972401;28;20031;-51
2022/03/25 06:29:29;;;;;;;59.58;35.72;;;2.70;99.90;;;;;;4972729;28;20496;-49
2022/03/25 06:31:54;;;;;;;56.35;35.45;;;2.70;99.90;;;;;;4972377;28;20071;-50
2022/03/25 06:34:21;;;;;;;64.00;35.75;;;2.80;99.90;;;;;;4972787;28;20038;-49
2022/03/25 06:36:48;;;;;;;59.40;35.50;;;2.90;99.90;;;;;;4972535;28;20105;-49
2022/03/25 06:39:14;;;;;;;61.03;37.70;;;3.00;99.90;;;;;;4972540;28;20078;-49
2022/03/25 06:41:40;;;;;;;59.13;36.15;;;3.00;99.90;;;;;;4971444;28;20049;-48
2022/03/25 06:44:06;;;;;;;65.03;38.20;;;3.10;99.90;;;;;;4972345;28;20022;-51
2022/03/25 06:46:32;;;;;;;60.05;35.58;;;3.20;99.90;;;;;;4971855;28;20054;-50
2022/03/25 06:48:58;;;;;;;59.83;37.03;;;3.30;99.90;;;;;;4972379;28;20031;-47
2022/03/25 06:51:24;;;;;;;62.95;37.10;;;3.40;99.90;;;;;;4972418;28;20041;-48
2022/03/25 06:53:50;;;;;;;67.88;40.10;;;3.40;99.90;;;;;;4971841;28;20437;-46
2022/03/25 06:56:16;;;;;;;72.35;41.30;;;3.50;99.90;;;;;;4970840;28;20034;-48
2022/03/25 06:58:42;;;;;;;67.70;40.15;;;3.60;99.90;;;;;;4971888;28;20090;-49
2022/03/25 07:01:07;;;;;;;66.10;41.25;;;3.70;99.90;;;;;;4970744;28;20180;-51
2022/03/25 07:03:33;;;;;;;76.00;45.20;;;3.80;99.90;;;;;;4972145;28;20085;-50
2022/03/25 07:06:00;;;;;;;69.97;44.00;;;3.90;99.90;;;;;;4970844;28;20046;-53
2022/03/25 07:08:29;;;;;;;79.72;46.67;;;4.00;99.90;;;;;;4971560;28;20113;-48
2022/03/25 07:10:55;;;;;;;80.88;47.72;;;4.10;99.90;;;;;;4972027;28;20022;-49
2022/03/25 07:13:21;;;;;;;92.30;53.42;;;4.20;99.90;;;;;;4971349;28;20031;-49
2022/03/25 07:15:46;;;;;;;87.38;48.92;;;4.30;99.90;;;;;;4971799;28;20031;-47
2022/03/25 07:18:12;;;;;;;92.53;53.22;;;4.40;99.90;;;;;;4971573;28;20069;-48
2022/03/25 07:20:37;;;;;;;83.60;50.42;;;4.60;99.90;;;;;;4972122;28;20062;-49
2022/03/25 07:23:03;;;;;;;87.68;49.60;;;4.80;99.90;;;;;;4971294;28;20061;-47
2022/03/25 07:25:31;;;;;;;82.43;49.38;;;4.90;99.90;;;;;;4971610;28;20042;-48
2022/03/25 07:27:56;;;;;;;86.95;50.75;;;5.00;99.90;;;;;;4971635;28;20023;-49
2022/03/25 07:30:22;;;;;;;78.15;49.45;;;5.20;99.90;;;;;;4970652;28;20027;-51
2022/03/25 07:32:48;;;;;;;76.25;47.15;;;5.50;99.90;;;;;;4971226;28;20058;-48
2022/03/25 07:35:14;;;;;;;76.63;47.45;;;5.70;99.90;;;;;;4971707;28;20031;-48
2022/03/25 07:37:41;;;;;;;73.57;46.28;;;6.00;99.90;;;;;;4971119;28;20044;-48
2022/03/25 07:40:09;;;;;;;74.15;46.53;;;6.30;99.90;;;;;;4971265;28;20111;-46
2022/03/25 07:42:37;;;;;;;76.25;46.80;;;6.60;99.90;;;;;;4969857;28;20019;-46
2022/03/25 07:45:03;;;;;;;66.35;43.10;;;6.90;99.90;;;;;;4971050;28;20050;-49
2022/03/25 07:47:32;;;;;;;74.07;44.50;;;7.20;99.90;;;;;;4971370;28;20022;-48
2022/03/25 07:50:01;;;;;;;65.97;42.65;;;7.40;99.90;;;;;;4971247;28;20054;-50
2022/03/25 07:52:26;;;;;;;66.18;38.45;;;7.60;99.90;;;;;;4970612;28;20039;-50
2022/03/25 07:54:52;;;;;;;64.32;37.45;;;7.90;99.90;;;;;;4971019;28;20041;-49
2022/03/25 07:57:17;;;;;;;54.92;34.28;;;8.20;99.90;;;;;;4970675;28;20042;-49
2022/03/25 07:59:43;;;;;;;50.50;33.75;;;8.40;99.90;;;;;;4967707;28;20027;-50
2022/03/25 08:02:09;;;;;;;53.08;33.70;;;8.60;99.90;;;;;;4959769;28;20031;-50
2022/03/25 08:04:34;;;;;;;54.88;33.42;;;8.80;99.90;;;;;;4963255;28;20026;-50
2022/03/25 08:07:01;;;;;;;53.03;34.40;;;9.00;99.90;;;;;;4970571;28;20066;-47
2022/03/25 08:09:26;;;;;;;54.33;33.72;;;9.20;99.90;;;;;;4969470;28;20122;-49
2022/03/25 08:11:52;;;;;;;57.78;32.50;;;9.40;99.90;;;;;;4969686;28;20086;-48
2022/03/25 08:14:18;;;;;;;52.58;33.13;;;9.60;99.90;;;;;;4970712;28;20429;-49
2022/03/25 08:16:45;;;;;;;45.03;30.05;;;9.80;99.90;;;;;;4970966;28;20103;-51
2022/03/25 08:19:11;;;;;;;50.63;30.83;;;10.10;99.90;;;;;;4970563;28;20113;-49
2022/03/25 08:21:37;;;;;;;49.70;30.90;;;10.30;99.90;;;;;;4970866;28;20030;-50
2022/03/25 08:29:31;;;;;;;42.28;24.45;;;10.90;99.90;;;;;;4970768;28;20512;-49
2022/03/25 08:31:56;;;;;;;41.55;25.20;;;11.10;99.90;;;;;;4970490;28;20034;-52
2022/03/25 08:34:22;;;;;;;42.25;24.73;;;11.20;99.90;;;;;;4970729;28;20045;-52
2022/03/25 08:36:49;;;;;;;41.55;23.88;;;11.20;99.90;;;;;;4970335;28;20406;-51
2022/03/25 08:39:16;;;;;;;39.20;24.45;;;11.20;99.90;;;;;;4970277;28;20118;-50
2022/03/25 08:41:42;;;;;;;40.28;26.25;;;11.30;99.90;;;;;;4970540;28;20508;-51
2022/03/25 08:44:09;;;;;;;38.35;24.60;;;11.40;99.90;;;;;;4969913;28;20038;-53
2022/03/25 08:46:35;;;;;;;36.65;25.20;;;11.50;99.90;;;;;;4970343;28;20023;-51
2022/03/25 08:49:03;;;;;;;35.63;24.33;;;11.60;99.90;;;;;;4970178;28;20492;-52
2022/03/25 08:51:30;;;;;;;39.08;22.70;;;11.70;99.90;;;;;;4970140;28;20027;-52
2022/03/25 08:53:56;;;;;;;40.80;25.60;;;11.80;99.90;;;;;;4969758;28;20113;-51
2022/03/25 08:56:24;;;;;;;35.83;24.48;;;12.00;99.90;;;;;;4970002;28;20027;-53
2022/03/25 08:58:50;;;;;;;36.08;24.15;;;12.20;99.90;;;;;;4968999;28;20166;-50
2022/03/25 09:01:16;;;;;;;40.05;23.02;;;12.50;99.90;;;;;;4970204;28;20552;-49
2022/03/25 09:03:41;;;;;;;39.80;25.88;;;12.70;99.90;;;;;;4969750;28;20138;-49
2022/03/25 09:06:07;;;;;;;33.50;22.90;;;12.90;99.90;;;;;;4970017;28;20023;-50
2022/03/25 09:08:32;;;;;;;34.33;24.33;;;13.00;99.90;;;;;;4969582;28;20038;-49
2022/03/25 09:10:58;;;;;;;34.70;23.15;;;13.20;99.90;;;;;;4970428;28;20019;-50
2022/03/25 09:13:24;;;;;;;38.00;23.42;;;13.30;99.90;;;;;;4969848;28;20041;-50
2022/03/25 09:15:50;;;;;;;36.88;22.60;;;13.50;99.90;;;;;;4969945;28;20050;-48
2022/03/25 09:18:15;;;;;;;37.20;23.35;;;13.70;99.90;;;;;;4970375;28;20030;-51
2022/03/25 09:20:41;;;;;;;37.90;23.83;;;13.80;99.90;;;;;;4969547;28;20023;-55
2022/03/25 09:23:08;;;;;;;35.92;22.35;;;13.80;99.80;;;;;;4969825;28;20124;-51
2022/03/25 09:25:34;;;;;;;34.08;22.27;;;13.90;99.30;;;;;;4968874;28;20132;-48
2022/03/25 09:27:59;;;;;;;34.63;23.25;;;13.80;99.30;;;;;;4970162;28;20128;-51
2022/03/25 09:30:25;;;;;;;36.15;22.92;;;13.70;99.80;;;;;;4971325;28;20033;-50
2022/03/25 09:32:50;;;;;;;32.63;22.38;;;13.80;99.30;;;;;;4973930;28;20528;-54
2022/03/25 09:35:16;;;;;;;37.33;22.67;;;13.80;99.90;;;;;;4973620;28;20038;-49
2022/03/25 09:37:44;;;;;;;31.70;20.75;;;14.00;99.80;;;;;;4973768;28;20431;-52
2022/03/25 09:40:20;;;;;;;31.90;20.23;;;14.20;98.50;;;;;;4973367;28;20093;-53
2022/03/25 09:42:46;;;;;;;38.00;23.52;;;14.40;99.10;;;;;;4973617;28;20035;-52
2022/03/25 09:45:13;;;;;;;32.90;21.33;;;14.70;98.30;;;;;;4973721;28;20031;-52
2022/03/25 09:47:40;;;;;;;31.60;19.20;;;14.80;97.30;;;;;;4973901;28;20170;-53
2022/03/25 09:50:12;;;;;;;31.27;19.95;;;14.90;96.80;;;;;;4973664;28;20122;-54
2022/03/25 09:52:38;;;;;;;32.95;20.30;;;15.00;95.90;;;;;;4973006;28;20461;-54
2022/03/25 09:55:05;;;;;;;27.23;20.20;;;14.90;95.50;;;;;;4973851;28;20509;-54
2022/03/25 09:57:31;;;;;;;28.75;19.38;;;14.90;96.40;;;;;;4973401;28;20568;-49
2022/03/25 09:59:57;;;;;;;32.80;19.90;;;15.10;97.00;;;;;;4973955;28;20030;-50
2022/03/25 10:02:24;;;;;;;28.50;19.23;;;15.20;96.10;;;;;;4973172;28;20081;-54
2022/03/25 10:04:50;;;;;;;30.40;19.05;;;15.30;95.20;;;;;;4973248;28;20015;-50
2022/03/25 10:07:20;;;;;;;35.20;22.40;;;15.30;94.90;;;;;;4972688;28;20030;-54
2022/03/25 10:09:48;;;;;;;32.45;21.85;;;15.20;93.50;;;;;;4973402;28;20515;-54
2022/03/25 10:12:24;;;;;;;35.22;23.67;;;15.20;93.20;;;;;;4973166;28;20035;-53
2022/03/25 10:14:51;;;;;;;33.60;23.52;;;15.20;93.60;;;;;;4973633;28;20508;-54
2022/03/25 10:17:18;;;;;;;35.65;21.98;;;15.40;93.50;;;;;;4973570;28;20477;-55
2022/03/25 10:19:52;;;;;;;34.60;23.15;;;15.50;93.80;;;;;;4972124;28;20034;-51
2022/03/25 10:22:19;;;;;;;37.28;22.45;;;15.50;93.20;;;;;;4953779;28;20031;-52
2022/03/25 10:24:52;;;;;;;37.22;22.58;;;15.50;91.70;;;;;;4965814;28;20019;-53
2022/03/25 10:27:28;;;;;;;34.60;24.00;;;15.50;92.40;;;;;;4973076;28;20038;-53
2022/03/25 10:29:56;;;;;;;32.47;21.75;;;15.40;91.70;;;;;;4972971;28;20389;-51
2022/03/25 10:32:26;;;;;;;31.98;21.38;;;15.20;91.00;;;;;;4972782;28;20046;-51
2022/03/25 10:35:10;;;;;;;29.77;19.85;;;15.10;92.40;;;;;;4971283;28;20089;-51
2022/03/25 10:37:38;;;;;;;30.52;19.02;;;15.20;92.60;;;;;;4972868;28;20109;-55
2022/03/25 10:40:08;;;;;;;28.88;18.10;;;15.20;92.20;;;;;;4971788;28;20026;-53
2022/03/25 10:42:36;;;;;;;26.90;17.77;;;15.20;91.60;;;;;;4971801;28;20027;-54
2022/03/25 10:45:26;;;;;;;29.48;19.50;;;15.20;91.20;;;;;;4973123;28;20070;-52
2022/03/25 10:48:14;;;;;;;29.33;18.67;;;15.30;91.80;;;;;;4970639;28;20023;-53
2022/03/25 10:51:04;;;;;;;32.28;19.35;;;15.40;91.10;;;;;;4972727;28;20097;-51
2022/03/25 10:53:33;;;;;;;28.90;18.95;;;15.50;91.40;;;;;;4969802;28;20102;-52
2022/03/25 10:56:03;;;;;;;27.77;18.30;;;15.60;91.00;;;;;;4967165;28;20042;-54
2022/03/25 10:58:29;;;;;;;29.48;17.88;;;15.70;90.80;;;;;;4966874;28;20026;-55
2022/03/25 11:00:56;;;;;;;27.65;16.85;;;15.80;89.60;;;;;;4972024;28;20038;-54
2022/03/25 11:03:23;;;;;;;30.25;17.25;;;15.80;88.20;;;;;;4971783;28;20049;-53
2022/03/25 11:05:49;;;;;;;26.80;16.45;;;15.80;85.70;;;;;;4972643;28;20397;-52
2022/03/25 11:08:15;;;;;;;28.20;17.05;;;15.90;87.20;;;;;;4972192;28;20559;-52
2022/03/25 11:10:40;;;;;;;30.27;18.65;;;16.00;84.60;;;;;;4972179;28;20023;-52
2022/03/25 11:13:08;;;;;;;32.50;18.83;;;15.90;84.50;;;;;;4971601;28;20041;-52
2022/03/25 11:15:35;;;;;;;26.20;16.58;;;15.90;85.50;;;;;;4972952;28;20023;-51
2022/03/25 11:18:01;;;;;;;24.23;18.10;;;16.00;84.70;;;;;;4972852;28;20391;-52
2022/03/25 11:20:29;;;;;;;24.75;14.93;;;16.10;83.50;;;;;;4972619;28;20038;-54
2022/03/25 11:23:03;;;;;;;24.67;14.07;;;16.10;82.00;;;;;;4972501;28;20041;-52
2022/03/25 11:25:31;;;;;;;24.55;16.13;;;16.20;81.20;;;;;;4971448;28;20199;-50
2022/03/25 11:28:07;;;;;;;23.33;15.00;;;16.20;81.10;;;;;;4972206;28;20710;-55
2022/03/25 11:30:35;;;;;;;32.95;16.55;;;16.30;82.60;;;;;;4972400;28;20059;-52
2022/03/25 11:33:04;;;;;;;26.70;15.43;;;16.40;81.10;;;;;;4971445;28;20101;-51
2022/03/25 11:35:32;;;;;;;29.10;15.27;;;16.50;79.20;;;;;;4972393;28;20038;-51
2022/03/25 11:38:10;;;;;;;22.02;14.60;;;16.50;80.30;;;;;;4971660;28;20034;-53
2022/03/25 11:40:36;;;;;;;28.02;17.60;;;16.50;79.70;;;;;;4971722;28;20066;-53
2022/03/25 11:43:35;;;;;;;24.92;15.60;;;16.50;78.30;;;;;;4971175;28;20378;-52
2022/03/25 11:46:00;;;;;;;21.45;15.20;;;16.50;79.50;;;;;;4970251;28;20074;-55
2022/03/25 11:48:26;;;;;;;22.45;13.63;;;16.60;79.60;;;;;;4970841;28;20022;-54
2022/03/25 11:50:55;;;;;;;21.85;14.45;;;16.70;81.20;;;;;;4971790;28;20051;-55
2022/03/25 11:53:23;;;;;;;22.85;15.77;;;16.70;80.00;;;;;;4970970;28;20043;-55
2022/03/25 11:55:56;;;;;;;24.77;15.95;;;16.80;78.20;;;;;;4971265;28;20114;-56
2022/03/25 11:58:22;;;;;;;25.73;16.30;;;16.80;78.60;;;;;;4970749;28;20098;-54
2022/03/25 12:00:51;;;;;;;25.58;16.73;;;16.90;80.70;;;;;;4971328;28;20443;-53
2022/03/25 12:03:17;;;;;;;25.25;14.68;;;17.00;79.80;;;;;;4969399;28;20031;-53
2022/03/25 12:06:03;;;;;;;23.48;15.43;;;17.00;77.90;;;;;;4971053;28;20027;-56
2022/03/25 12:08:35;;;;;;;25.67;15.73;;;17.10;80.50;;;;;;4970716;28;20687;-52
2022/03/25 12:11:08;;;;;;;23.80;15.00;;;17.00;79.00;;;;;;4970888;28;20101;-51
2022/03/25 12:14:02;;;;;;;27.45;15.13;;;17.10;81.40;;;;;;4970777;28;20070;-53
2022/03/25 12:16:53;;;;;;;22.00;13.80;;;17.20;78.20;;;;;;4970744;28;20035;-53
2022/03/25 12:19:38;;;;;;;23.95;14.00;;;17.10;77.80;;;;;;4970148;28;20034;-52
2022/03/25 12:22:22;;;;;;;24.65;13.90;;;16.90;76.90;;;;;;4951670;28;20031;-54
2022/03/25 12:24:51;;;;;;;20.85;13.57;;;16.80;77.20;;;;;;4951679;28;20024;-50
2022/03/25 12:27:17;;;;;;;18.50;12.93;;;16.60;79.50;;;;;;4951824;28;20051;-50
2022/03/25 12:29:51;;;;;;;17.92;13.68;;;16.70;80.60;;;;;;4951942;28;20031;-54
2022/03/25 12:32:19;;;;;;;21.65;14.45;;;16.80;78.90;;;;;;4951564;28;20719;-52
2022/03/25 12:35:01;;;;;;;21.80;13.40;;;16.80;78.30;;;;;;4951396;28;20481;-56
2022/03/25 12:37:39;;;;;;;18.60;12.45;;;16.90;78.40;;;;;;4951349;28;20047;-50
2022/03/25 12:40:16;;;;;;;19.52;12.77;;;16.90;78.40;;;;;;4951516;28;20106;-52